Time;durP1;ratioP1;P1;durP2;ratioP2;P2;SDS_P1;SDS_P2;PMS_P1;PMS_P2;Temp;Humidity;BMP_temperature;BMP_pressure;BME280_temperature;BME280_humidity;BME280_pressure;Samples;Min_cycle;Max_cycle;Signal;HPM_P1;HPM_P2
2021/06/25 00:01:57;;;;;;;10.32;1.37;;;17.60;99.90;;;;;;1917564;73;21396;-72
2021/06/25 00:04:23;;;;;;;1.35;1.25;;;17.50;99.90;;;;;;1915661;73;21094;-73
2021/06/25 00:06:49;;;;;;;1.25;0.88;;;17.50;99.90;;;;;;1916727;73;21192;-73
2021/06/25 00:09:15;;;;;;;2.27;1.40;;;17.40;99.90;;;;;;1920360;74;21069;-74
2021/06/25 00:11:41;;;;;;;0.72;0.72;;;17.30;99.90;;;;;;1920808;73;21065;-74
2021/06/25 00:14:07;;;;;;;0.80;0.80;;;17.20;99.90;;;;;;1914308;73;21031;-74
2021/06/25 00:16:34;;;;;;;1.15;1.05;;;17.30;99.90;;;;;;1914906;73;21058;-74
2021/06/25 00:19:00;;;;;;;2.60;0.90;;;17.30;99.90;;;;;;1911416;74;21147;-74
2021/06/25 00:21:26;;;;;;;1.07;0.80;;;17.30;99.90;;;;;;1917044;73;21061;-74
2021/06/25 00:23:52;;;;;;;4.97;1.05;;;17.20;99.90;;;;;;1919179;73;21038;-74
2021/06/25 00:26:18;;;;;;;0.80;0.80;;;17.20;99.90;;;;;;1919177;73;21057;-74
2021/06/25 00:28:44;;;;;;;0.80;0.80;;;17.10;99.90;;;;;;1918966;74;21069;-74
2021/06/25 00:31:10;;;;;;;1.87;1.15;;;17.10;99.90;;;;;;1920976;73;21057;-74
2021/06/25 00:33:36;;;;;;;0.60;0.60;;;17.00;99.90;;;;;;1918783;73;21039;-75
2021/06/25 00:36:03;;;;;;;2.02;1.20;;;17.00;99.90;;;;;;1921087;73;21135;-74
2021/06/25 00:38:29;;;;;;;3.17;1.30;;;17.00;99.90;;;;;;1918200;73;21065;-74
2021/06/25 00:40:55;;;;;;;2.58;0.80;;;17.00;99.90;;;;;;1913509;74;21150;-75
2021/06/25 00:43:21;;;;;;;1.22;0.93;;;17.00;99.90;;;;;;1917535;73;21042;-74
2021/06/25 00:45:47;;;;;;;0.80;0.80;;;17.10;99.90;;;;;;1914856;73;21059;-74
2021/06/25 00:48:13;;;;;;;1.20;0.78;;;17.10;99.90;;;;;;1920190;73;21182;-74
2021/06/25 00:50:40;;;;;;;0.90;0.80;;;17.10;99.90;;;;;;1919157;74;21057;-74
2021/06/25 00:53:06;;;;;;;1.37;1.00;;;17.10;99.90;;;;;;1914354;73;21144;-74
2021/06/25 00:55:41;;;;;;;1.80;0.70;;;17.00;99.90;;;;;;1912649;74;21030;-74
2021/06/25 00:58:00;;;;;;;1.05;0.60;;;17.00;99.90;;;;;;1915897;73;21106;-71
2021/06/25 01:00:26;;;;;;;1.12;0.90;;;17.00;99.90;;;;;;1913012;73;21176;-71
2021/06/25 01:02:52;;;;;;;0.60;0.60;;;17.00;99.90;;;;;;1919731;73;21155;-72
2021/06/25 01:05:18;;;;;;;0.93;0.90;;;17.10;99.90;;;;;;1916050;73;21063;-72
2021/06/25 01:07:44;;;;;;;2.15;0.90;;;17.20;99.90;;;;;;1913504;74;21042;-72
2021/06/25 01:10:11;;;;;;;1.42;0.70;;;17.10;99.90;;;;;;1919141;74;21422;-72
2021/06/25 01:12:37;;;;;;;0.80;0.80;;;17.10;99.90;;;;;;1921023;73;21245;-72
2021/06/25 01:15:03;;;;;;;0.98;0.80;;;17.00;99.90;;;;;;1917142;73;21120;-73
2021/06/25 01:17:29;;;;;;;0.75;0.75;;;17.00;99.90;;;;;;1918944;73;21065;-73
2021/06/25 01:19:55;;;;;;;0.60;0.60;;;17.00;99.90;;;;;;1920585;73;21062;-73
2021/06/25 01:22:21;;;;;;;1.95;0.70;;;17.00;99.90;;;;;;1920743;73;21065;-73
2021/06/25 01:24:47;;;;;;;5.83;0.82;;;16.90;99.90;;;;;;1916262;73;21062;-73
2021/06/25 01:27:14;;;;;;;0.50;0.50;;;16.90;99.90;;;;;;1912632;74;21170;-73
2021/06/25 01:29:40;;;;;;;0.90;0.50;;;16.90;99.90;;;;;;1914566;73;21030;-73
2021/06/25 01:32:06;;;;;;;0.60;0.60;;;16.90;99.90;;;;;;1919473;73;21074;-72
2021/06/25 01:34:32;;;;;;;0.60;0.55;;;16.80;99.90;;;;;;1915143;73;21065;-73
2021/06/25 01:36:58;;;;;;;1.37;0.42;;;16.80;99.90;;;;;;1919845;73;21082;-73
2021/06/25 01:39:24;;;;;;;0.82;0.50;;;16.70;99.90;;;;;;1917605;73;21037;-73
2021/06/25 01:41:50;;;;;;;0.85;0.72;;;16.60;99.90;;;;;;1919677;73;21061;-73
2021/06/25 01:44:16;;;;;;;0.75;0.50;;;16.60;99.90;;;;;;1920395;73;21155;-73
2021/06/25 01:46:43;;;;;;;1.95;0.55;;;16.70;99.90;;;;;;1911284;74;21143;-73
2021/06/25 01:49:09;;;;;;;0.85;0.62;;;16.70;99.90;;;;;;1918426;73;21455;-73
2021/06/25 01:51:35;;;;;;;0.62;0.57;;;16.80;99.90;;;;;;1920595;73;21554;-73
2021/06/25 01:54:01;;;;;;;0.60;0.60;;;16.90;99.90;;;;;;1920891;73;21599;-73
2021/06/25 01:56:27;;;;;;;0.30;0.30;;;16.90;99.90;;;;;;1923088;74;21449;-73
2021/06/25 01:58:53;;;;;;;0.80;0.53;;;16.80;99.90;;;;;;1914419;74;21446;-73
2021/06/25 02:01:19;;;;;;;1.45;0.50;;;16.70;99.90;;;;;;1921616;73;21481;-73
2021/06/25 02:03:45;;;;;;;6.95;0.57;;;16.70;99.90;;;;;;1919530;73;22894;-73
2021/06/25 02:06:12;;;;;;;4.05;0.70;;;16.80;99.90;;;;;;1916838;74;21187;-73
2021/06/25 02:08:42;;;;;;;0.98;0.60;;;16.80;99.90;;;;;;1921701;73;21035;-73
2021/06/25 02:11:06;;;;;;;0.50;0.50;;;16.80;99.90;;;;;;1915459;74;21121;-73
2021/06/25 02:13:32;;;;;;;2.33;0.60;;;16.80;99.90;;;;;;1916194;73;21073;-73
2021/06/25 02:15:58;;;;;;;1.95;0.50;;;16.80;99.90;;;;;;1914374;74;21069;-73
2021/06/25 02:18:25;;;;;;;0.40;0.40;;;16.80;99.90;;;;;;1915530;74;21147;-73
2021/06/25 02:20:51;;;;;;;0.53;0.53;;;16.90;99.90;;;;;;1919658;73;21179;-73
2021/06/25 02:23:17;;;;;;;0.62;0.57;;;16.90;99.90;;;;;;1919796;73;21068;-73
2021/06/25 02:25:43;;;;;;;0.30;0.30;;;16.90;99.90;;;;;;1912323;73;21065;-73
2021/06/25 02:28:09;;;;;;;0.50;0.47;;;16.90;99.90;;;;;;1910704;74;21065;-73
2021/06/25 02:30:35;;;;;;;0.50;0.50;;;16.90;99.90;;;;;;1921914;73;21034;-73
2021/06/25 02:33:01;;;;;;;0.40;0.40;;;16.90;99.90;;;;;;1920171;74;21547;-72
2021/06/25 02:35:28;;;;;;;0.20;0.20;;;16.80;99.90;;;;;;1915438;73;21112;-74
2021/06/25 02:37:55;;;;;;;0.40;0.40;;;16.80;99.90;;;;;;1911263;74;21155;-73
2021/06/25 02:40:21;;;;;;;2.20;0.40;;;16.90;99.90;;;;;;1918650;73;21074;-73
2021/06/25 02:42:48;;;;;;;0.50;0.50;;;16.90;99.90;;;;;;1919123;73;21065;-72
2021/06/25 02:45:14;;;;;;;0.68;0.50;;;17.00;99.90;;;;;;1919370;73;21200;-73
2021/06/25 02:47:40;;;;;;;0.50;0.50;;;16.80;99.90;;;;;;1920742;73;21036;-73
2021/06/25 02:50:06;;;;;;;0.50;0.47;;;16.90;99.90;;;;;;1918830;74;21061;-74
2021/06/25 02:52:32;;;;;;;0.60;0.42;;;17.00;99.90;;;;;;1913136;73;21077;-74
2021/06/25 02:54:58;;;;;;;0.57;0.57;;;16.90;99.90;;;;;;1915627;73;21070;-73
2021/06/25 02:57:24;;;;;;;0.70;0.50;;;16.80;99.90;;;;;;1921897;73;21501;-73
2021/06/25 02:59:50;;;;;;;0.60;0.60;;;16.70;99.90;;;;;;1919201;73;21187;-74
2021/06/25 03:02:17;;;;;;;1.57;0.60;;;16.80;99.90;;;;;;1921602;74;21435;-74
2021/06/25 03:04:43;;;;;;;2.15;0.65;;;16.80;99.90;;;;;;1923344;73;21239;-73
2021/06/25 03:07:09;;;;;;;3.25;0.55;;;16.90;99.90;;;;;;1916008;73;21527;-72
2021/06/25 03:09:35;;;;;;;2.67;0.90;;;16.90;99.90;;;;;;1916377;73;21547;-73
2021/06/25 03:12:01;;;;;;;0.62;0.47;;;16.80;99.90;;;;;;1921607;73;21489;-72
2021/06/25 03:14:27;;;;;;;0.50;0.50;;;16.80;99.90;;;;;;1924976;73;21585;-73
2021/06/25 03:16:53;;;;;;;3.92;0.68;;;16.80;99.90;;;;;;1915814;73;21559;-72
2021/06/25 03:19:19;;;;;;;1.02;0.55;;;16.70;99.90;;;;;;1918849;73;21465;-72
2021/06/25 03:21:46;;;;;;;0.75;0.75;;;16.70;99.90;;;;;;1914453;73;21472;-73
2021/06/25 03:24:12;;;;;;;0.50;0.50;;;16.80;99.90;;;;;;1918265;73;21061;-74
2021/06/25 03:26:38;;;;;;;1.40;0.90;;;16.80;99.90;;;;;;1912586;73;21069;-74
2021/06/25 03:29:04;;;;;;;1.40;0.60;;;16.70;99.90;;;;;;1914883;73;21061;-74
2021/06/25 03:31:30;;;;;;;5.55;1.62;;;16.60;99.90;;;;;;1917704;74;21131;-74
2021/06/25 03:33:56;;;;;;;1.07;0.70;;;16.50;99.90;;;;;;1919750;74;21142;-74
2021/06/25 03:36:22;;;;;;;5.92;0.80;;;16.60;99.90;;;;;;1913971;73;21056;-74
2021/06/25 03:38:49;;;;;;;1.17;0.82;;;16.60;99.90;;;;;;1915760;74;21065;-73
2021/06/25 03:41:15;;;;;;;0.98;0.70;;;16.50;99.90;;;;;;1914245;73;21108;-73
2021/06/25 03:43:41;;;;;;;0.57;0.57;;;16.40;99.90;;;;;;1913320;73;21205;-73
2021/06/25 03:46:07;;;;;;;0.45;0.40;;;16.30;99.90;;;;;;1917612;74;21550;-73
2021/06/25 03:48:33;;;;;;;4.05;0.70;;;16.30;99.90;;;;;;1921243;73;21446;-73
2021/06/25 03:50:59;;;;;;;1.95;0.80;;;16.20;99.90;;;;;;1917393;73;21061;-73
2021/06/25 03:53:25;;;;;;;0.80;0.80;;;16.20;99.90;;;;;;1912465;73;21151;-73
2021/06/25 03:56:10;;;;;;;1.40;0.72;;;16.30;99.90;;;;;;1915203;74;21061;-73
2021/06/25 03:58:36;;;;;;;1.75;0.98;;;16.40;99.90;;;;;;1913624;73;21074;-74
2021/06/25 04:01:03;;;;;;;1.20;0.80;;;16.40;99.90;;;;;;1918738;74;21066;-74
2021/06/25 04:03:29;;;;;;;0.68;0.68;;;16.40;99.90;;;;;;1918691;73;21135;-74
2021/06/25 04:05:55;;;;;;;1.27;0.90;;;16.20;99.90;;;;;;1916169;73;21124;-74
2021/06/25 04:08:24;;;;;;;0.90;0.90;;;16.20;99.90;;;;;;1910572;74;21039;-74
2021/06/25 04:10:49;;;;;;;1.17;0.70;;;16.20;99.90;;;;;;1916294;74;21320;-71
2021/06/25 04:13:15;;;;;;;0.78;0.78;;;16.20;99.90;;;;;;1920896;73;21113;-74
2021/06/25 04:15:41;;;;;;;0.88;0.70;;;16.40;99.90;;;;;;1921177;73;21069;-74
2021/06/25 04:18:07;;;;;;;0.62;0.62;;;16.40;99.90;;;;;;1916350;73;21034;-74
2021/06/25 04:20:33;;;;;;;0.60;0.60;;;16.40;99.90;;;;;;1919289;73;21061;-75
2021/06/25 04:22:59;;;;;;;0.60;0.55;;;16.50;99.90;;;;;;1920894;73;21123;-74
2021/06/25 04:25:26;;;;;;;2.90;0.88;;;16.50;99.90;;;;;;1920408;73;21030;-74
2021/06/25 04:27:53;;;;;;;3.92;0.70;;;16.50;99.90;;;;;;1920640;73;21098;-74
2021/06/25 04:30:19;;;;;;;0.57;0.57;;;16.50;99.90;;;;;;1919789;73;21481;-74
2021/06/25 04:32:45;;;;;;;1.22;0.90;;;16.50;99.90;;;;;;1916975;74;21497;-74
2021/06/25 04:35:11;;;;;;;0.70;0.70;;;16.50;99.90;;;;;;1920912;73;21427;-74
2021/06/25 04:37:37;;;;;;;1.85;0.78;;;16.40;99.90;;;;;;1920114;73;21600;-74
2021/06/25 04:40:04;;;;;;;1.27;0.70;;;16.30;99.90;;;;;;1917408;73;21053;-74
2021/06/25 04:42:30;;;;;;;0.70;0.70;;;16.40;99.90;;;;;;1911579;74;21143;-74
2021/06/25 04:44:56;;;;;;;1.85;0.60;;;16.50;99.90;;;;;;1917693;74;21127;-74
2021/06/25 04:47:22;;;;;;;0.68;0.50;;;16.40;99.90;;;;;;1916402;74;21188;-74
2021/06/25 04:49:48;;;;;;;1.32;0.80;;;16.40;99.90;;;;;;1918299;73;21061;-74
2021/06/25 04:52:14;;;;;;;1.60;1.00;;;16.50;99.90;;;;;;1917064;74;21073;-74
2021/06/25 04:54:40;;;;;;;1.65;0.80;;;16.60;99.90;;;;;;1916908;73;21139;-74
2021/06/25 04:57:06;;;;;;;0.62;0.62;;;16.50;99.90;;;;;;1917956;73;21073;-74
2021/06/25 04:59:33;;;;;;;1.10;0.70;;;16.60;99.90;;;;;;1916969;73;21058;-74
2021/06/25 05:01:59;;;;;;;1.25;0.65;;;16.60;99.90;;;;;;1916675;73;21066;-74
2021/06/25 05:04:25;;;;;;;1.62;0.82;;;16.60;99.90;;;;;;1909861;74;21095;-74
2021/06/25 05:06:51;;;;;;;1.72;0.88;;;16.70;99.90;;;;;;1918218;74;21246;-74
2021/06/25 05:09:17;;;;;;;2.02;0.80;;;16.80;99.90;;;;;;1919540;74;21155;-74
2021/06/25 05:11:43;;;;;;;4.35;0.80;;;16.80;99.90;;;;;;1918338;74;21196;-74
2021/06/25 05:14:09;;;;;;;2.10;0.80;;;16.90;99.90;;;;;;1922158;74;21049;-74
2021/06/25 05:16:36;;;;;;;1.15;0.50;;;17.00;99.90;;;;;;1914965;73;21074;-73
2021/06/25 05:19:02;;;;;;;2.15;0.70;;;17.00;99.90;;;;;;1913791;73;21461;-73
2021/06/25 05:21:28;;;;;;;2.85;0.60;;;17.00;99.90;;;;;;1918238;73;21057;-74
2021/06/25 05:23:54;;;;;;;4.08;0.75;;;16.80;99.90;;;;;;1914472;73;21159;-73
2021/06/25 05:26:21;;;;;;;5.83;0.70;;;17.00;99.90;;;;;;1914369;74;21069;-73
2021/06/25 05:28:47;;;;;;;0.62;0.62;;;16.90;99.90;;;;;;1912387;73;21152;-73
2021/06/25 05:31:13;;;;;;;0.90;0.68;;;17.00;99.90;;;;;;1915960;74;21051;-74
2021/06/25 05:33:39;;;;;;;0.78;0.78;;;16.90;99.90;;;;;;1918348;73;21069;-73
2021/06/25 05:36:05;;;;;;;0.60;0.60;;;17.00;99.90;;;;;;1917112;73;21062;-74
2021/06/25 05:38:32;;;;;;;0.70;0.70;;;17.00;99.90;;;;;;1917497;73;21061;-73
2021/06/25 05:40:58;;;;;;;0.88;0.60;;;17.10;99.90;;;;;;1919727;73;21058;-74
2021/06/25 05:43:24;;;;;;;0.85;0.40;;;17.10;99.90;;;;;;1921285;73;21138;-73
2021/06/25 05:45:50;;;;;;;0.60;0.60;;;17.00;99.90;;;;;;1921224;74;21108;-73
2021/06/25 05:48:16;;;;;;;3.17;0.75;;;16.80;99.90;;;;;;1916477;73;21081;-74
2021/06/25 05:50:42;;;;;;;0.53;0.53;;;16.90;99.90;;;;;;1917431;73;21456;-73
2021/06/25 05:53:08;;;;;;;0.78;0.45;;;16.90;99.90;;;;;;1921409;73;21142;-73
2021/06/25 05:55:35;;;;;;;0.90;0.42;;;16.90;99.90;;;;;;1919892;73;21089;-73
2021/06/25 05:58:01;;;;;;;1.15;1.05;;;17.00;99.90;;;;;;1918950;73;21147;-73
2021/06/25 06:00:27;;;;;;;0.95;0.45;;;17.10;99.90;;;;;;1919624;74;21135;-74
2021/06/25 06:02:53;;;;;;;0.40;0.40;;;16.90;99.90;;;;;;1916910;73;21066;-74
2021/06/25 06:05:19;;;;;;;1.27;0.40;;;16.80;99.90;;;;;;1912746;74;21058;-73
2021/06/25 06:07:45;;;;;;;3.80;0.42;;;16.80;99.90;;;;;;1915726;74;21194;-74
2021/06/25 06:10:11;;;;;;;0.30;0.30;;;16.70;99.90;;;;;;1922136;73;21089;-74
2021/06/25 06:12:37;;;;;;;0.25;0.20;;;16.50;99.90;;;;;;1917691;74;21272;-74
2021/06/25 06:15:03;;;;;;;0.25;0.25;;;16.50;99.90;;;;;;1913698;73;21127;-73
2021/06/25 06:17:30;;;;;;;0.30;0.30;;;16.50;99.90;;;;;;1921086;73;21155;-73
2021/06/25 06:19:56;;;;;;;0.40;0.40;;;16.60;99.90;;;;;;1915942;73;21493;-73
2021/06/25 06:33:31;;;;;;;0.25;0.25;;;17.10;99.90;;;;;;1918875;73;21065;-74
2021/06/25 06:35:50;;;;;;;4.28;0.40;;;17.30;99.90;;;;;;1916454;73;21104;-74
2021/06/25 06:38:17;;;;;;;0.33;0.33;;;17.50;99.90;;;;;;1915307;73;21070;-74
2021/06/25 06:40:43;;;;;;;0.47;0.47;;;17.50;99.90;;;;;;1919594;73;21139;-74
2021/06/25 06:43:09;;;;;;;0.20;0.20;;;17.50;99.90;;;;;;1917193;73;21062;-74
2021/06/25 06:45:36;;;;;;;0.17;0.17;;;17.40;99.90;;;;;;1917269;73;21126;-74
2021/06/25 06:48:02;;;;;;;0.40;0.20;;;17.40;99.90;;;;;;1920130;74;21038;-73
2021/06/25 06:50:28;;;;;;;0.35;0.35;;;17.40;99.90;;;;;;1919093;73;21041;-73
2021/06/25 06:52:54;;;;;;;0.68;0.40;;;17.40;99.90;;;;;;1916449;73;21061;-73
2021/06/25 06:55:22;;;;;;;1.10;0.33;;;17.50;99.90;;;;;;1921119;73;21269;-73
2021/06/25 06:57:48;;;;;;;4.58;0.50;;;17.60;99.90;;;;;;1917404;73;21026;-69
2021/06/25 07:00:14;;;;;;;0.50;0.30;;;17.90;99.90;;;;;;1922616;73;21091;-71
2021/06/25 07:02:41;;;;;;;0.65;0.30;;;18.00;99.90;;;;;;1920711;73;21053;-73
2021/06/25 07:05:07;;;;;;;0.45;0.45;;;18.30;99.90;;;;;;1919127;74;21121;-73
2021/06/25 07:07:33;;;;;;;1.00;0.72;;;18.40;99.90;;;;;;1916645;73;21155;-72
2021/06/25 07:09:59;;;;;;;0.75;0.30;;;18.40;99.90;;;;;;1920343;73;21038;-73
2021/06/25 07:12:25;;;;;;;1.27;0.30;;;18.30;99.90;;;;;;1914103;73;21155;-73
2021/06/25 07:14:51;;;;;;;0.30;0.30;;;18.20;99.90;;;;;;1915848;74;21090;-73
2021/06/25 07:17:18;;;;;;;0.53;0.40;;;18.10;99.90;;;;;;1911359;74;21042;-74
2021/06/25 07:19:44;;;;;;;0.40;0.40;;;18.20;99.90;;;;;;1913085;74;21131;-74
2021/06/25 07:22:10;;;;;;;0.47;0.47;;;17.90;99.90;;;;;;1915584;74;21077;-73
2021/06/25 07:24:36;;;;;;;0.53;0.50;;;17.80;99.90;;;;;;1915189;74;21176;-73
2021/06/25 07:27:03;;;;;;;2.10;0.57;;;17.50;99.90;;;;;;1914524;74;21462;-73
2021/06/25 07:29:29;;;;;;;0.72;0.60;;;17.50;99.90;;;;;;1918012;74;21045;-74
2021/06/25 07:31:55;;;;;;;1.00;0.55;;;17.50;99.90;;;;;;1918256;73;21142;-72
2021/06/25 07:34:21;;;;;;;0.75;0.70;;;17.50;99.90;;;;;;1916264;73;21070;-72
2021/06/25 07:36:47;;;;;;;0.95;0.60;;;17.70;99.90;;;;;;1918525;73;21135;-73
2021/06/25 07:39:14;;;;;;;1.25;1.05;;;17.80;99.90;;;;;;1922047;74;21041;-74
2021/06/25 07:41:40;;;;;;;0.70;0.70;;;17.80;99.90;;;;;;1916261;73;21066;-73
2021/06/25 07:44:06;;;;;;;0.82;0.80;;;18.00;99.90;;;;;;1915820;73;21069;-74
2021/06/25 07:46:32;;;;;;;0.78;0.72;;;18.10;99.90;;;;;;1916796;73;21058;-73
2021/06/25 07:48:58;;;;;;;2.65;0.82;;;18.00;99.90;;;;;;1921258;74;21063;-74
2021/06/25 07:51:24;;;;;;;0.98;0.65;;;17.90;99.90;;;;;;1915288;74;21127;-73
2021/06/25 07:53:52;;;;;;;0.68;0.68;;;18.00;99.90;;;;;;1912182;74;21272;-74
2021/06/25 07:56:18;;;;;;;2.47;1.00;;;18.00;99.90;;;;;;1919614;73;21241;-74
2021/06/25 07:58:44;;;;;;;1.20;1.02;;;18.10;99.90;;;;;;1920236;73;21042;-74
2021/06/25 08:01:10;;;;;;;1.12;1.02;;;17.90;99.90;;;;;;1918836;73;21053;-75
2021/06/25 08:03:36;;;;;;;2.02;1.30;;;17.80;99.90;;;;;;1919067;73;21320;-74
2021/06/25 08:06:03;;;;;;;2.35;1.37;;;17.70;99.90;;;;;;1910986;74;21062;-75
2021/06/25 08:08:29;;;;;;;1.40;1.30;;;17.60;99.90;;;;;;1918006;73;21042;-73
2021/06/25 08:10:55;;;;;;;2.20;1.35;;;17.50;99.90;;;;;;1920121;73;21053;-73
2021/06/25 08:13:21;;;;;;;4.37;1.70;;;17.50;99.90;;;;;;1919389;74;21143;-73
2021/06/25 08:15:50;;;;;;;2.52;1.10;;;17.50;99.90;;;;;;1918327;74;21057;-74
2021/06/25 08:18:16;;;;;;;1.90;1.40;;;17.60;99.90;;;;;;1917412;73;21159;-73
2021/06/25 08:20:42;;;;;;;2.90;1.60;;;17.60;99.90;;;;;;1916665;73;21057;-73
2021/06/25 08:23:08;;;;;;;3.10;1.70;;;17.70;99.90;;;;;;1912187;74;21065;-73
2021/06/25 08:25:34;;;;;;;3.05;1.70;;;17.80;99.90;;;;;;1914652;73;21065;-73
2021/06/25 08:28:00;;;;;;;1.67;1.32;;;18.00;99.90;;;;;;1919948;73;21038;-74
2021/06/25 08:30:26;;;;;;;6.90;1.85;;;18.20;99.90;;;;;;1921294;73;21069;-74
2021/06/25 08:32:53;;;;;;;2.08;1.37;;;18.30;99.90;;;;;;1919202;74;21069;-74
2021/06/25 08:35:19;;;;;;;3.42;1.50;;;18.50;99.90;;;;;;1920225;73;21136;-75
2021/06/25 08:37:45;;;;;;;2.92;1.70;;;18.50;99.90;;;;;;1919528;73;21113;-74
2021/06/25 08:40:11;;;;;;;2.15;1.60;;;18.70;99.90;;;;;;1919165;73;21059;-74
2021/06/25 08:42:37;;;;;;;1.50;1.30;;;18.80;99.90;;;;;;1903054;73;21061;-74
2021/06/25 08:45:03;;;;;;;1.57;1.45;;;18.80;99.90;;;;;;1913431;75;21180;-74
2021/06/25 08:47:29;;;;;;;2.25;1.47;;;19.00;99.90;;;;;;1920711;74;21522;-74
2021/06/25 08:49:56;;;;;;;2.80;1.62;;;19.20;99.90;;;;;;1915263;74;21463;-74
2021/06/25 08:52:22;;;;;;;1.52;1.42;;;19.30;99.90;;;;;;1914660;74;21466;-74
2021/06/25 08:54:48;;;;;;;2.70;1.55;;;19.30;99.90;;;;;;1908910;75;21502;-74
2021/06/25 08:57:14;;;;;;;2.30;1.52;;;19.30;99.90;;;;;;1914426;75;21764;-74
2021/06/25 08:59:40;;;;;;;1.02;0.98;;;19.60;99.90;;;;;;1911053;75;21610;-74
2021/06/25 09:02:06;;;;;;;1.72;1.00;;;19.90;99.90;;;;;;1912846;74;21140;-74
2021/06/25 09:04:32;;;;;;;4.90;1.67;;;20.00;99.90;;;;;;1912612;74;21050;-74
2021/06/25 09:06:58;;;;;;;1.37;1.22;;;19.80;99.90;;;;;;1914109;75;21062;-75
2021/06/25 09:09:24;;;;;;;1.85;1.40;;;19.60;99.90;;;;;;1910552;75;21058;-74
2021/06/25 09:11:51;;;;;;;1.15;1.05;;;19.30;99.90;;;;;;1914010;75;21066;-73
2021/06/25 09:14:17;;;;;;;1.65;1.32;;;18.70;99.90;;;;;;1912293;75;21074;-72
2021/06/25 09:16:43;;;;;;;1.20;1.10;;;18.50;99.90;;;;;;1914636;75;21047;-72
2021/06/25 09:19:09;;;;;;;2.50;1.37;;;18.20;99.90;;;;;;1916666;74;21152;-73
2021/06/25 09:21:35;;;;;;;1.82;1.17;;;18.00;99.90;;;;;;1915998;74;21073;-73
2021/06/25 09:24:01;;;;;;;3.77;1.40;;;17.60;99.90;;;;;;1910509;74;21140;-72
2021/06/25 09:26:27;;;;;;;2.70;1.42;;;17.30;99.90;;;;;;1906738;73;21031;-73
2021/06/25 09:28:53;;;;;;;2.20;1.45;;;17.40;99.90;;;;;;1915937;74;21070;-73
2021/06/25 09:31:21;;;;;;;4.60;1.55;;;17.50;99.90;;;;;;1918961;74;21140;-73
2021/06/25 09:33:48;;;;;;;4.62;1.37;;;17.50;99.90;;;;;;1919115;74;21069;-73
2021/06/25 09:36:14;;;;;;;3.75;1.77;;;17.30;99.90;;;;;;1918641;74;21065;-72
2021/06/25 09:38:40;;;;;;;2.20;1.67;;;17.40;99.90;;;;;;1917441;74;21070;-73
2021/06/25 09:41:06;;;;;;;2.17;1.85;;;17.30;99.90;;;;;;1918824;74;21199;-73
2021/06/25 09:43:32;;;;;;;3.92;1.85;;;17.30;99.90;;;;;;1917382;74;21262;-73
2021/06/25 09:45:59;;;;;;;2.20;1.60;;;17.30;99.90;;;;;;1918706;74;21571;-73
2021/06/25 09:48:25;;;;;;;3.33;1.72;;;17.30;99.90;;;;;;1917082;74;21434;-73
2021/06/25 09:50:51;;;;;;;3.50;2.00;;;17.40;99.90;;;;;;1918428;74;21493;-72
2021/06/25 09:53:18;;;;;;;3.30;1.60;;;17.50;99.90;;;;;;1918397;74;21058;-73
2021/06/25 09:55:51;;;;;;;2.35;1.67;;;17.50;99.90;;;;;;1918538;74;21152;-74
2021/06/25 10:01:21;;;;;;;2.47;1.35;;;17.50;99.90;;;;;;1915497;74;21098;-74
2021/06/25 10:03:13;;;;;;;2.02;1.60;;;17.50;99.90;;;;;;1904806;74;21043;-74
2021/06/25 10:05:39;;;;;;;3.45;1.52;;;17.50;99.90;;;;;;1915219;73;21070;-73
2021/06/25 10:08:05;;;;;;;6.50;1.50;;;17.50;99.90;;;;;;1916753;74;21065;-74
2021/06/25 10:10:31;;;;;;;3.70;2.00;;;17.50;99.90;;;;;;1919587;74;21143;-73
2021/06/25 10:12:57;;;;;;;2.70;2.30;;;17.60;99.90;;;;;;1919259;74;21070;-73
2021/06/25 10:15:24;;;;;;;3.67;2.30;;;17.50;99.90;;;;;;1919213;74;21098;-74
2021/06/25 10:17:50;;;;;;;2.70;2.08;;;17.60;99.90;;;;;;1919215;74;21179;-74
2021/06/25 10:20:16;;;;;;;5.10;2.47;;;17.70;99.90;;;;;;1918757;74;21069;-73
2021/06/25 10:22:42;;;;;;;2.85;1.82;;;17.70;99.90;;;;;;1920811;74;21262;-71
2021/06/25 10:25:08;;;;;;;4.05;1.92;;;17.70;99.90;;;;;;1918729;74;21054;-73
2021/06/25 10:27:35;;;;;;;3.85;1.87;;;17.60;99.90;;;;;;1920116;74;21054;-73
2021/06/25 10:30:01;;;;;;;3.22;2.30;;;17.50;99.90;;;;;;1917052;74;21144;-73
2021/06/25 10:32:27;;;;;;;2.30;1.50;;;17.50;99.90;;;;;;1918857;74;21180;-73
2021/06/25 10:34:54;;;;;;;1.57;1.40;;;17.60;99.90;;;;;;1917476;74;21179;-73
2021/06/25 10:37:20;;;;;;;3.33;1.60;;;17.70;99.90;;;;;;1919340;74;21155;-74
2021/06/25 10:39:46;;;;;;;3.35;1.80;;;17.70;99.90;;;;;;1916489;74;21063;-74
2021/06/25 10:42:12;;;;;;;2.33;1.95;;;17.60;99.90;;;;;;1914605;74;21066;-71
2021/06/25 10:44:40;;;;;;;3.85;2.83;;;17.80;99.90;;;;;;1892903;74;21119;-70
2021/06/25 10:47:06;;;;;;;5.05;3.15;;;17.80;99.90;;;;;;1918719;74;21082;-74
2021/06/25 10:49:32;;;;;;;3.58;2.65;;;17.90;99.90;;;;;;1913631;74;21066;-73
2021/06/25 10:52:02;;;;;;;4.75;2.75;;;18.00;99.90;;;;;;1912249;74;21031;-73
2021/06/25 10:54:28;;;;;;;6.70;2.97;;;17.90;99.90;;;;;;1916958;73;21140;-74
2021/06/25 10:56:54;;;;;;;6.78;2.77;;;18.10;99.90;;;;;;1913413;74;21050;-74
2021/06/25 10:59:22;;;;;;;3.40;2.75;;;18.20;99.90;;;;;;1909527;75;21140;-74
2021/06/25 11:01:48;;;;;;;5.47;3.00;;;18.40;99.90;;;;;;1915959;74;21549;-72
2021/06/25 11:04:18;;;;;;;3.85;3.08;;;18.50;99.90;;;;;;1915471;74;21155;-73
2021/06/25 11:06:43;;;;;;;7.70;3.17;;;18.80;99.90;;;;;;1916532;74;21137;-74
2021/06/25 11:09:09;;;;;;;4.75;2.95;;;18.80;99.90;;;;;;1910770;74;21193;-73
2021/06/25 11:11:36;;;;;;;4.78;3.15;;;18.90;99.90;;;;;;1916833;74;21082;-73
2021/06/25 11:14:02;;;;;;;4.22;2.72;;;19.20;99.90;;;;;;1916089;74;21151;-73
2021/06/25 11:16:28;;;;;;;5.03;2.75;;;19.50;99.90;;;;;;1918551;75;21061;-73
2021/06/25 11:18:55;;;;;;;5.10;3.22;;;19.50;99.90;;;;;;1915352;74;21035;-73
2021/06/25 11:21:21;;;;;;;3.92;3.10;;;19.70;99.90;;;;;;1916249;73;21450;-72
2021/06/25 11:23:47;;;;;;;4.67;2.80;;;19.50;99.90;;;;;;1914953;73;21596;-74
2021/06/25 11:26:13;;;;;;;10.30;3.33;;;19.30;99.90;;;;;;1915595;74;21477;-74
2021/06/25 11:28:40;;;;;;;6.78;3.30;;;19.20;99.90;;;;;;1913555;74;21586;-73
2021/06/25 11:31:06;;;;;;;3.70;3.08;;;18.90;99.90;;;;;;1914220;75;21043;-73
2021/06/25 11:33:32;;;;;;;7.53;3.42;;;18.80;99.90;;;;;;1916857;74;21155;-73
2021/06/25 11:35:59;;;;;;;5.40;3.58;;;18.60;99.90;;;;;;1915757;74;21065;-73
2021/06/25 11:38:25;;;;;;;6.05;4.28;;;18.50;99.90;;;;;;1913264;74;21066;-73
2021/06/25 11:40:51;;;;;;;5.67;4.28;;;18.40;99.90;;;;;;1910353;74;21483;-73
2021/06/25 11:43:17;;;;;;;6.60;4.42;;;18.50;99.90;;;;;;1913581;74;21587;-73
2021/06/25 11:45:46;;;;;;;11.55;4.50;;;18.70;99.90;;;;;;1913260;74;21510;-74
2021/06/25 11:48:14;;;;;;;5.70;3.83;;;19.20;99.90;;;;;;1913906;74;21143;-73
2021/06/25 11:50:40;;;;;;;7.05;3.87;;;19.70;99.90;;;;;;1914894;74;21127;-73
2021/06/25 11:53:06;;;;;;;5.87;4.20;;;19.60;99.90;;;;;;1917300;74;21077;-73
2021/06/25 11:55:33;;;;;;;9.15;4.47;;;19.80;99.90;;;;;;1920326;73;21090;-74
2021/06/25 11:57:59;;;;;;;5.87;4.53;;;20.10;99.90;;;;;;1918218;73;21062;-75
2021/06/25 12:00:27;;;;;;;6.72;4.33;;;20.40;99.90;;;;;;1913365;74;21062;-73
2021/06/25 12:02:56;;;;;;;7.08;4.40;;;20.30;99.90;;;;;;1914935;73;21046;-74
2021/06/25 12:05:22;;;;;;;7.53;4.30;;;20.20;99.90;;;;;;1918629;73;21131;-74
2021/06/25 12:07:48;;;;;;;7.12;4.47;;;20.40;99.90;;;;;;1914794;74;21035;-73
2021/06/25 12:10:14;;;;;;;16.70;4.33;;;20.70;99.90;;;;;;1913668;74;21131;-74
2021/06/25 12:12:40;;;;;;;7.05;4.00;;;20.60;99.90;;;;;;1914962;74;21073;-74
2021/06/25 12:15:06;;;;;;;9.83;4.78;;;20.30;99.90;;;;;;1915764;74;21093;-74
2021/06/25 12:17:32;;;;;;;7.25;4.70;;;20.30;99.90;;;;;;1915194;74;21487;-74
2021/06/25 12:19:59;;;;;;;11.45;4.95;;;20.10;99.90;;;;;;1913092;74;21069;-74
2021/06/25 12:22:25;;;;;;;8.18;5.12;;;20.20;99.90;;;;;;1914258;74;21066;-73
2021/06/25 12:24:51;;;;;;;11.78;5.00;;;20.20;99.90;;;;;;1912054;75;21039;-75
2021/06/25 12:27:17;;;;;;;7.40;4.92;;;20.20;99.90;;;;;;1915549;75;21203;-73
2021/06/25 12:29:43;;;;;;;8.55;5.28;;;20.30;99.90;;;;;;1915282;74;21053;-73
2021/06/25 12:32:09;;;;;;;8.75;5.35;;;20.60;99.90;;;;;;1912786;74;21074;-73
2021/06/25 12:34:35;;;;;;;8.48;4.80;;;20.70;99.90;;;;;;1919242;74;21034;-74
2021/06/25 12:37:02;;;;;;;8.85;4.97;;;21.00;99.90;;;;;;1915525;75;21184;-74
2021/06/25 12:39:28;;;;;;;9.50;5.60;;;21.10;99.90;;;;;;1915392;74;21131;-74
2021/06/25 12:41:55;;;;;;;7.05;5.00;;;21.00;99.90;;;;;;1911178;74;21139;-74
2021/06/25 12:44:21;;;;;;;8.70;4.50;;;21.20;99.90;;;;;;1911325;75;21066;-74
2021/06/25 12:46:47;;;;;;;7.28;4.03;;;21.50;99.90;;;;;;1916083;74;21201;-75
2021/06/25 12:49:15;;;;;;;8.38;4.20;;;21.80;99.90;;;;;;1914752;74;21042;-75
2021/06/25 12:51:44;;;;;;;6.47;3.83;;;22.30;99.90;;;;;;1917630;74;21070;-74
2021/06/25 12:54:10;;;;;;;5.40;3.87;;;22.30;99.90;;;;;;1917718;74;21143;-74